Time;durP1;ratioP1;P1;durP2;ratioP2;P2;SDS_P1;SDS_P2;PMS_P1;PMS_P2;Temp;Humidity;BMP_temperature;BMP_pressure;BME280_temperature;BME280_humidity;BME280_pressure;Samples;Min_cycle;Max_cycle;Signal;HPM_P1;HPM_P2
2024/03/21 00:00:11;;;;;;;54.58;27.15;;;;;;;;;;5131845;28;20023;-59
2024/03/21 00:02:37;;;;;;;49.97;26.03;;;;;;;;;;5135933;28;20087;-58
2024/03/21 00:05:03;;;;;;;54.88;27.33;;;;;;;;;;5124940;28;20271;-57
2024/03/21 00:07:28;;;;;;;55.90;26.92;;;;;;;;;;5126222;28;20032;-58
2024/03/21 00:09:53;;;;;;;56.30;27.43;;;;;;;;;;5123748;28;20027;-58
2024/03/21 00:12:19;;;;;;;56.83;27.83;;;;;;;;;;5112444;28;20030;-58
2024/03/21 00:14:45;;;;;;;53.90;27.90;;;;;;;;;;5127360;28;20172;-58
2024/03/21 00:17:10;;;;;;;58.08;26.48;;;;;;;;;;5128024;28;20020;-57
2024/03/21 00:19:36;;;;;;;55.65;28.60;;;;;;;;;;5135459;28;20036;-57
2024/03/21 00:22:01;;;;;;;57.25;28.30;;;;;;;;;;5131697;28;20020;-61
2024/03/21 00:24:27;;;;;;;58.40;27.73;;;;;;;;;;5133870;27;20062;-57
2024/03/21 00:26:52;;;;;;;54.47;28.05;;;;;;;;;;5125272;28;20042;-57
2024/03/21 00:29:18;;;;;;;57.87;27.17;;;;;;;;;;5134811;28;20057;-57
2024/03/21 00:31:43;;;;;;;54.77;26.70;;;;;;;;;;5114034;28;20032;-59
2024/03/21 00:34:10;;;;;;;52.80;25.93;;;;;;;;;;5133522;28;20042;-58
2024/03/21 00:36:36;;;;;;;58.83;27.83;;;;;;;;;;5132335;28;20027;-57
2024/03/21 00:39:02;;;;;;;54.78;26.50;;;;;;;;;;5129659;28;20248;-58
2024/03/21 00:41:28;;;;;;;54.95;26.88;;;;;;;;;;5135186;28;20093;-58
2024/03/21 00:43:53;;;;;;;48.70;26.50;;;;;;;;;;5133475;28;20083;-58
2024/03/21 00:46:18;;;;;;;46.83;25.90;;;;;;;;;;5135524;28;20487;-56
2024/03/21 00:48:44;;;;;;;52.57;27.00;;;;;;;;;;5126421;28;20023;-57
2024/03/21 00:51:09;;;;;;;50.17;24.90;;;;;;;;;;5135425;28;20053;-56
2024/03/21 00:53:35;;;;;;;53.93;25.77;;;;;;;;;;5135058;28;20035;-56
2024/03/21 00:56:00;;;;;;;51.65;25.50;;;;;;;;;;5134589;28;20045;-55
2024/03/21 00:58:26;;;;;;;44.67;22.90;;;;;;;;;;5113485;28;20028;-58
2024/03/21 01:00:51;;;;;;;45.17;24.60;;;;;;;;;;5134435;28;20105;-57
2024/03/21 01:03:17;;;;;;;42.37;22.47;;;;;;;;;;5128335;28;20028;-55
2024/03/21 01:05:43;;;;;;;44.90;23.92;;;;;;;;;;5116482;28;20031;-54
2024/03/21 01:08:09;;;;;;;41.40;22.10;;;;;;;;;;5119167;28;20054;-56
2024/03/21 01:10:35;;;;;;;42.95;23.20;;;;;;;;;;5135026;28;20310;-55
2024/03/21 01:13:01;;;;;;;42.20;20.60;;;;;;;;;;5131986;28;20039;-57
2024/03/21 01:15:26;;;;;;;44.40;22.05;;;;;;;;;;5130425;28;20065;-58
2024/03/21 01:17:52;;;;;;;46.53;21.90;;;;;;;;;;5132822;28;20077;-57
2024/03/21 01:20:17;;;;;;;40.75;21.27;;;;;;;;;;5139161;28;20031;-57
2024/03/21 01:22:42;;;;;;;41.70;22.67;;;;;;;;;;5139091;28;20099;-57
2024/03/21 01:25:09;;;;;;;47.35;23.08;;;;;;;;;;5137918;28;20111;-57
2024/03/21 01:27:34;;;;;;;42.03;19.80;;;;;;;;;;5133025;28;20050;-58
2024/03/21 01:30:00;;;;;;;37.45;19.58;;;;;;;;;;5130959;28;20024;-56
2024/03/21 01:32:25;;;;;;;37.05;19.85;;;;;;;;;;5128906;28;20062;-55
2024/03/21 01:34:51;;;;;;;43.03;21.05;;;;;;;;;;5137349;28;20099;-56
2024/03/21 01:37:16;;;;;;;38.27;19.57;;;;;;;;;;5138498;28;20054;-56
2024/03/21 01:39:41;;;;;;;36.33;19.53;;;;;;;;;;5133416;28;20105;-52
2024/03/21 01:42:07;;;;;;;39.73;19.33;;;;;;;;;;5138533;28;20015;-54
2024/03/21 01:44:32;;;;;;;40.40;20.27;;;;;;;;;;5138728;28;20027;-58
2024/03/21 01:46:58;;;;;;;35.45;19.85;;;;;;;;;;5132322;28;20039;-58
2024/03/21 01:49:23;;;;;;;45.90;21.80;;;;;;;;;;5138621;28;20031;-58
2024/03/21 01:51:48;;;;;;;42.60;20.87;;;;;;;;;;5138734;28;20472;-57
2024/03/21 01:54:17;;;;;;;36.40;21.37;;;;;;;;;;5137667;28;20031;-57
2024/03/21 01:56:43;;;;;;;39.30;20.27;;;;;;;;;;5134210;28;20053;-54
2024/03/21 01:59:08;;;;;;;34.95;19.05;;;;;;;;;;5137497;28;20260;-57
2024/03/21 02:01:35;;;;;;;40.70;19.13;;;;;;;;;;5135906;28;20028;-58
2024/03/21 02:04:03;;;;;;;37.00;19.17;;;;;;;;;;5132806;28;20264;-56
2024/03/21 02:06:31;;;;;;;36.33;17.97;;;;;;;;;;5132534;28;20273;-58
2024/03/21 02:08:58;;;;;;;36.20;17.80;;;;;;;;;;5133930;28;20264;-57
2024/03/21 02:11:24;;;;;;;29.53;17.07;;;;;;;;;;5136635;28;20281;-59
2024/03/21 02:13:50;;;;;;;40.08;18.08;;;;;;;;;;5138195;28;20319;-58
2024/03/21 02:16:15;;;;;;;29.25;14.30;;;;;;;;;;5137151;28;20036;-55
2024/03/21 02:18:41;;;;;;;29.80;15.67;;;;;;;;;;5131082;28;20099;-55
2024/03/21 02:22:35;;;;;;;25.55;14.43;;;;;;;;;;5138134;28;20027;-55
2024/03/21 02:23:52;;;;;;;34.67;16.07;;;;;;;;;;5136599;28;20027;-56
2024/03/21 02:26:18;;;;;;;28.48;14.85;;;;;;;;;;5119532;28;20276;-59
2024/03/21 02:28:44;;;;;;;31.50;16.57;;;;;;;;;;5124705;28;20050;-56
2024/03/21 02:31:09;;;;;;;29.30;14.82;;;;;;;;;;5136008;28;20031;-57
2024/03/21 02:33:35;;;;;;;35.90;15.95;;;;;;;;;;5115899;28;20035;-55
2024/03/21 02:36:00;;;;;;;39.00;17.63;;;;;;;;;;5136452;28;20034;-55
2024/03/21 02:38:26;;;;;;;38.85;17.27;;;;;;;;;;5136286;28;20095;-55
2024/03/21 02:40:51;;;;;;;34.45;18.02;;;;;;;;;;5135652;28;20022;-53
2024/03/21 02:43:17;;;;;;;34.70;17.02;;;;;;;;;;5133236;28;20035;-57
2024/03/21 02:45:42;;;;;;;43.60;18.90;;;;;;;;;;5132755;28;20042;-55
2024/03/21 02:48:08;;;;;;;33.08;16.95;;;;;;;;;;5133255;28;20031;-55
2024/03/21 02:50:34;;;;;;;39.53;19.67;;;;;;;;;;5134948;28;20062;-57
2024/03/21 02:53:02;;;;;;;39.53;20.25;;;;;;;;;;5135723;28;20032;-55
2024/03/21 02:55:27;;;;;;;36.70;19.10;;;;;;;;;;5132822;28;20036;-56
2024/03/21 02:57:52;;;;;;;44.83;20.30;;;;;;;;;;5117621;28;20252;-57
2024/03/21 03:00:17;;;;;;;51.63;22.33;;;;;;;;;;5133120;28;20059;-56
2024/03/21 03:02:43;;;;;;;48.60;21.93;;;;;;;;;;5129727;28;20035;-54
2024/03/21 03:05:10;;;;;;;46.27;22.23;;;;;;;;;;5135702;28;20035;-58
2024/03/21 03:07:36;;;;;;;44.57;21.80;;;;;;;;;;5133238;28;20028;-56
2024/03/21 03:10:02;;;;;;;53.65;22.58;;;;;;;;;;5126489;28;20252;-57
2024/03/21 03:12:28;;;;;;;46.30;22.58;;;;;;;;;;5133667;28;20099;-55
2024/03/21 03:14:53;;;;;;;51.97;24.07;;;;;;;;;;5133650;28;20054;-58
2024/03/21 03:17:19;;;;;;;48.93;23.77;;;;;;;;;;5128233;28;20484;-57
2024/03/21 03:19:44;;;;;;;57.92;26.67;;;;;;;;;;5134724;28;20027;-56
2024/03/21 03:22:09;;;;;;;51.67;23.50;;;;;;;;;;5136223;28;20020;-57
2024/03/21 03:24:35;;;;;;;54.70;25.73;;;;;;;;;;5135683;28;20034;-57
2024/03/21 03:27:00;;;;;;;52.28;26.05;;;;;;;;;;5133314;28;20052;-55
2024/03/21 03:29:26;;;;;;;47.28;24.65;;;;;;;;;;5132211;28;20019;-55
2024/03/21 03:32:00;;;;;;;61.47;25.85;;;;;;;;;;5136796;28;20042;-56
2024/03/21 03:37:20;;;;;;;57.33;28.03;;;;;;;;;;5134178;28;20252;-57
2024/03/21 03:39:45;;;;;;;62.57;26.97;;;;;;;;;;5136419;28;20260;-56
2024/03/21 03:42:11;;;;;;;56.70;28.00;;;;;;;;;;5136309;28;20597;-58
2024/03/21 03:44:37;;;;;;;62.45;27.38;;;;;;;;;;5136371;28;20055;-55
2024/03/21 03:47:02;;;;;;;57.95;27.77;;;;;;;;;;5133320;28;20156;-57
2024/03/21 03:49:28;;;;;;;68.70;28.35;;;;;;;;;;5122884;28;20059;-58
2024/03/21 03:51:54;;;;;;;53.77;26.63;;;;;;;;;;5114428;28;20035;-55
2024/03/21 03:54:19;;;;;;;61.55;30.08;;;;;;;;;;5136226;28;20031;-58
2024/03/21 03:56:44;;;;;;;61.50;26.77;;;;;;;;;;5134964;28;20119;-56
2024/03/21 03:59:10;;;;;;;50.30;25.90;;;;;;;;;;5132548;28;20035;-53
2024/03/21 04:01:36;;;;;;;53.47;25.60;;;;;;;;;;5131225;28;20053;-56
2024/03/21 04:04:01;;;;;;;56.47;27.63;;;;;;;;;;5134254;28;20315;-57
2024/03/21 04:06:27;;;;;;;58.92;26.02;;;;;;;;;;5135667;28;20038;-56
2024/03/21 04:08:52;;;;;;;59.10;26.63;;;;;;;;;;5132645;28;20035;-53
2024/03/21 04:11:18;;;;;;;57.13;26.70;;;;;;;;;;5135858;28;20036;-57
2024/03/21 04:13:43;;;;;;;60.03;28.60;;;;;;;;;;5128848;28;20091;-56
2024/03/21 04:16:13;;;;;;;55.83;28.42;;;;;;;;;;5134558;28;20024;-55
2024/03/21 04:18:38;;;;;;;64.97;29.27;;;;;;;;;;5131788;28;20046;-56
2024/03/21 04:21:03;;;;;;;60.77;29.47;;;;;;;;;;5135603;28;20260;-56
2024/03/21 04:23:28;;;;;;;65.13;29.73;;;;;;;;;;5131137;28;20034;-58
2024/03/21 04:25:54;;;;;;;63.95;30.75;;;;;;;;;;5132778;28;20024;-58
2024/03/21 04:28:19;;;;;;;66.83;30.27;;;;;;;;;;5126576;28;20061;-57
2024/03/21 04:30:45;;;;;;;63.63;29.88;;;;;;;;;;5134604;28;20039;-57
2024/03/21 04:33:11;;;;;;;64.45;31.10;;;;;;;;;;5135335;28;20110;-57
2024/03/21 04:35:36;;;;;;;53.60;26.10;;;;;;;;;;5134657;28;20042;-57
2024/03/21 04:38:02;;;;;;;33.88;17.33;;;;;;;;;;5135127;28;20028;-57
2024/03/21 04:40:27;;;;;;;44.13;22.83;;;;;;;;;;5126543;28;20099;-58
2024/03/21 04:42:53;;;;;;;33.63;17.57;;;;;;;;;;5131327;28;20036;-53
2024/03/21 04:45:20;;;;;;;34.67;17.65;;;;;;;;;;5134712;28;20065;-58
2024/03/21 04:47:46;;;;;;;30.00;15.70;;;;;;;;;;5115527;28;20027;-57
2024/03/21 04:50:11;;;;;;;;;;;;;;;;;;5135510;28;20270;-57
2024/03/21 04:52:37;;;;;;;29.03;14.57;;;;;;;;;;5134033;28;19912;-58
2024/03/21 04:55:03;;;;;;;23.37;11.77;;;;;;;;;;5134668;28;20094;-55
2024/03/21 04:57:28;;;;;;;24.98;11.25;;;;;;;;;;5133254;28;20053;-55
2024/03/21 04:59:56;;;;;;;18.05;10.63;;;;;;;;;;5134114;28;20054;-58
2024/03/21 05:02:22;;;;;;;24.30;13.00;;;;;;;;;;5133903;28;20103;-58
2024/03/21 05:04:48;;;;;;;20.77;11.63;;;;;;;;;;5129604;28;20268;-54
2024/03/21 05:07:14;;;;;;;;;;;;;;;;;;5135305;28;20087;-56
2024/03/21 05:09:39;;;;;;;19.45;9.85;;;;;;;;;;5129083;28;19908;-54
2024/03/21 05:12:06;;;;;;;15.53;8.23;;;;;;;;;;5135185;28;20031;-55
2024/03/21 05:14:34;;;;;;;10.87;5.73;;;;;;;;;;5131220;28;20039;-59
2024/03/21 05:17:01;;;;;;;10.53;6.20;;;;;;;;;;5134910;28;20253;-57
2024/03/21 05:19:27;;;;;;;10.23;5.93;;;;;;;;;;5132210;28;20282;-57
2024/03/21 05:21:53;;;;;;;9.13;5.10;;;;;;;;;;5130891;28;20031;-56
2024/03/21 05:24:18;;;;;;;9.45;5.82;;;;;;;;;;5133960;28;20051;-57
2024/03/21 05:26:43;;;;;;;13.83;6.03;;;;;;;;;;5134880;28;20060;-58
2024/03/21 05:29:09;;;;;;;13.40;7.15;;;;;;;;;;5131998;28;20107;-57
2024/03/21 05:31:34;;;;;;;16.17;6.15;;;;;;;;;;5134121;28;20028;-57
2024/03/21 05:34:00;;;;;;;9.23;6.40;;;;;;;;;;5134553;28;20028;-56
2024/03/21 05:36:26;;;;;;;8.43;4.18;;;;;;;;;;5131015;28;20078;-57
2024/03/21 05:38:52;;;;;;;11.93;6.28;;;;;;;;;;5123366;28;20034;-56
2024/03/21 05:41:17;;;;;;;7.10;4.43;;;;;;;;;;5128926;28;20040;-56
2024/03/21 05:43:43;;;;;;;13.97;6.27;;;;;;;;;;5133862;28;20040;-56
2024/03/21 05:46:08;;;;;;;6.80;4.47;;;;;;;;;;5131140;28;20110;-55
2024/03/21 05:48:34;;;;;;;15.67;6.10;;;;;;;;;;5127213;28;20035;-55
2024/03/21 05:51:00;;;;;;;13.70;6.28;;;;;;;;;;5128400;28;20056;-55
2024/03/21 05:53:26;;;;;;;14.07;7.90;;;;;;;;;;5131123;28;20028;-58
2024/03/21 05:56:01;;;;;;;16.50;8.88;;;;;;;;;;5130394;28;20038;-53
2024/03/21 05:58:27;;;;;;;15.13;9.43;;;;;;;;;;5129372;28;20052;-55
2024/03/21 06:00:53;;;;;;;10.88;5.43;;;;;;;;;;5131648;28;20272;-55
2024/03/21 06:03:18;;;;;;;12.07;6.00;;;;;;;;;;5131030;28;20032;-54
2024/03/21 06:05:44;;;;;;;11.63;6.93;;;;;;;;;;5136264;28;20069;-57
2024/03/21 06:08:09;;;;;;;19.58;8.23;;;;;;;;;;5138346;28;20518;-56
2024/03/21 06:10:35;;;;;;;14.95;8.13;;;;;;;;;;5131055;28;20031;-57
2024/03/21 06:13:00;;;;;;;10.50;6.07;;;;;;;;;;5130526;28;20039;-59
2024/03/21 06:15:26;;;;;;;12.90;8.18;;;;;;;;;;5137440;28;20024;-56
2024/03/21 06:17:51;;;;;;;9.40;5.18;;;;;;;;;;5134865;28;20033;-56
2024/03/21 06:20:17;;;;;;;12.53;6.73;;;;;;;;;;5125250;28;20034;-56
2024/03/21 06:22:44;;;;;;;12.27;6.33;;;;;;;;;;5138082;28;20264;-56
2024/03/21 06:25:09;;;;;;;11.80;5.40;;;;;;;;;;5137229;28;20038;-58
2024/03/21 06:27:35;;;;;;;9.98;5.15;;;;;;;;;;5127295;28;20264;-58
2024/03/21 06:30:01;;;;;;;8.05;3.58;;;;;;;;;;5137988;28;20040;-57
2024/03/21 06:32:26;;;;;;;12.55;5.75;;;;;;;;;;5136967;28;20027;-57
2024/03/21 06:34:51;;;;;;;7.88;3.22;;;;;;;;;;5133377;28;20073;-58
2024/03/21 06:37:17;;;;;;;9.80;4.45;;;;;;;;;;5127738;28;20028;-58
2024/03/21 06:39:43;;;;;;;11.17;4.60;;;;;;;;;;5131894;28;20031;-56
2024/03/21 06:42:08;;;;;;;7.25;2.88;;;;;;;;;;5136960;28;20132;-55
2024/03/21 06:44:34;;;;;;;8.97;3.77;;;;;;;;;;5133370;28;20050;-59
2024/03/21 06:47:00;;;;;;;10.77;3.77;;;;;;;;;;5136617;28;20310;-58
2024/03/21 06:49:25;;;;;;;10.13;2.95;;;;;;;;;;5133292;28;20264;-55
2024/03/21 06:51:51;;;;;;;9.40;3.35;;;;;;;;;;5137395;28;20103;-58
2024/03/21 06:54:16;;;;;;;7.20;2.40;;;;;;;;;;5137183;28;20057;-57
2024/03/21 06:56:41;;;;;;;9.63;3.13;;;;;;;;;;5137027;28;20043;-56
2024/03/21 06:59:07;;;;;;;9.57;2.67;;;;;;;;;;5134517;28;20056;-56
2024/03/21 07:01:32;;;;;;;12.50;2.60;;;;;;;;;;5135057;28;20049;-60
2024/03/21 07:03:57;;;;;;;5.17;3.03;;;;;;;;;;5128430;28;20268;-55
2024/03/21 07:06:23;;;;;;;8.23;2.70;;;;;;;;;;5128908;28;20039;-62
2024/03/21 07:08:48;;;;;;;8.17;2.60;;;;;;;;;;5112021;28;20043;-55
2024/03/21 07:11:14;;;;;;;8.82;3.22;;;;;;;;;;5135768;28;20035;-57
2024/03/21 07:13:39;;;;;;;3.60;1.70;;;;;;;;;;5134776;28;20032;-58
2024/03/21 07:16:05;;;;;;;12.32;2.38;;;;;;;;;;5128057;28;20043;-57
2024/03/21 07:18:30;;;;;;;7.43;2.57;;;;;;;;;;5136804;28;20028;-57
2024/03/21 07:20:57;;;;;;;9.93;2.72;;;;;;;;;;5131273;28;20042;-58
2024/03/21 07:23:22;;;;;;;11.45;2.50;;;;;;;;;;5134513;28;20031;-57
2024/03/21 07:25:48;;;;;;;8.10;2.03;;;;;;;;;;5135198;28;20046;-56
2024/03/21 07:28:14;;;;;;;6.95;1.88;;;;;;;;;;5135348;28;20031;-56
2024/03/21 07:30:39;;;;;;;3.08;1.67;;;;;;;;;;5134877;28;20095;-58
2024/03/21 07:33:04;;;;;;;13.63;3.03;;;;;;;;;;5136576;28;20054;-57
2024/03/21 07:35:30;;;;;;;9.40;3.67;;;;;;;;;;5134454;28;20055;-54
2024/03/21 07:37:56;;;;;;;13.27;2.78;;;;;;;;;;5132924;28;20028;-55
2024/03/21 07:40:22;;;;;;;8.50;2.45;;;;;;;;;;5127508;28;20039;-59
2024/03/21 07:42:47;;;;;;;5.43;1.60;;;;;;;;;;5118048;28;20058;-56
2024/03/21 07:45:13;;;;;;;7.35;2.35;;;;;;;;;;5135165;28;20028;-56
2024/03/21 07:47:40;;;;;;;7.27;1.97;;;;;;;;;;5135840;28;20146;-57
2024/03/21 07:50:05;;;;;;;7.23;1.87;;;;;;;;;;5126164;28;20024;-58
2024/03/21 07:52:31;;;;;;;9.53;2.20;;;;;;;;;;5133579;28;20278;-56
2024/03/21 07:54:56;;;;;;;11.90;2.17;;;;;;;;;;5135557;28;20031;-54
2024/03/21 07:57:21;;;;;;;5.93;2.57;;;;;;;;;;5130960;28;20044;-55
2024/03/21 07:59:47;;;;;;;8.73;2.13;;;;;;;;;;5129922;28;20045;-55
2024/03/21 08:02:12;;;;;;;10.63;2.20;;;;;;;;;;5128428;28;20046;-57
2024/03/21 08:04:38;;;;;;;7.82;1.95;;;;;;;;;;5135293;28;20031;-57
2024/03/21 08:07:04;;;;;;;7.00;2.17;;;;;;;;;;5132382;28;20032;-59
2024/03/21 08:09:29;;;;;;;3.90;1.50;;;;;;;;;;5131684;28;20024;-59
2024/03/21 08:11:56;;;;;;;5.03;1.58;;;;;;;;;;5135540;28;20043;-57
2024/03/21 08:14:22;;;;;;;8.13;1.93;;;;;;;;;;5135507;28;20031;-57
2024/03/21 08:16:47;;;;;;;8.07;2.30;;;;;;;;;;5135579;28;20325;-57
2024/03/21 08:19:12;;;;;;;9.63;2.20;;;;;;;;;;5132884;28;20045;-58
2024/03/21 08:21:38;;;;;;;6.05;1.90;;;;;;;;;;5133570;28;20028;-56
2024/03/21 08:24:03;;;;;;;5.23;1.70;;;;;;;;;;5131613;28;20028;-59
2024/03/21 08:26:28;;;;;;;6.03;1.83;;;;;;;;;;5134656;28;20062;-58
2024/03/21 08:28:53;;;;;;;4.13;1.63;;;;;;;;;;5127780;28;20016;-57
2024/03/21 08:31:19;;;;;;;3.17;1.17;;;;;;;;;;5132773;28;20091;-54
2024/03/21 08:33:44;;;;;;;6.13;1.90;;;;;;;;;;5135346;28;20044;-57
2024/03/21 08:36:10;;;;;;;7.25;1.80;;;;;;;;;;5135430;28;20032;-59
2024/03/21 08:38:36;;;;;;;6.82;1.95;;;;;;;;;;5114043;28;20127;-58
2024/03/21 08:41:02;;;;;;;7.13;2.08;;;;;;;;;;5124120;28;20030;-60
2024/03/21 08:43:27;;;;;;;9.52;1.70;;;;;;;;;;5129591;28;20020;-58
2024/03/21 08:45:53;;;;;;;5.88;1.95;;;;;;;;;;5130956;28;20038;-58
2024/03/21 08:48:19;;;;;;;5.28;2.10;;;;;;;;;;5128971;28;20031;-54
2024/03/21 08:50:47;;;;;;;6.55;2.25;;;;;;;;;;5124883;28;20038;-58
2024/03/21 08:53:13;;;;;;;9.73;1.83;;;;;;;;;;5135076;28;20027;-57
2024/03/21 08:55:39;;;;;;;7.20;1.83;;;;;;;;;;5124993;28;20276;-56
2024/03/21 08:58:04;;;;;;;13.57;1.67;;;;;;;;;;5134068;28;20309;-58
2024/03/21 09:00:33;;;;;;;9.30;1.70;;;;;;;;;;5128471;28;20031;-56
2024/03/21 09:03:00;;;;;;;10.30;2.07;;;;;;;;;;5125492;28;20268;-54
2024/03/21 09:05:27;;;;;;;6.87;1.93;;;;;;;;;;5128070;28;20299;-58
2024/03/21 09:07:53;;;;;;;4.33;1.83;;;;;;;;;;5130761;28;20291;-58
2024/03/21 09:10:18;;;;;;;8.75;1.77;;;;;;;;;;5131268;28;20369;-58
2024/03/21 09:12:43;;;;;;;10.17;2.17;;;;;;;;;;5133483;28;20057;-57
2024/03/21 09:15:10;;;;;;;4.25;1.73;;;;;;;;;;5131110;28;20051;-58
2024/03/21 09:17:36;;;;;;;;;;;;;;;;;;5128363;28;20028;-57
2024/03/21 09:20:02;;;;;;;9.57;1.67;;;;;;;;;;5132281;28;19919;-54
2024/03/21 09:22:27;;;;;;;10.15;2.03;;;;;;;;;;5130627;28;20272;-54
2024/03/21 09:24:52;;;;;;;6.23;1.43;;;;;;;;;;5130097;28;20038;-58
2024/03/21 09:27:18;;;;;;;8.13;1.70;;;;;;;;;;5133533;28;20039;-55
2024/03/21 09:29:43;;;;;;;7.50;2.00;;;;;;;;;;5109912;28;20044;-57
2024/03/21 09:32:09;;;;;;;10.10;2.40;;;;;;;;;;5111133;28;20031;-55
2024/03/21 09:34:34;;;;;;;5.10;1.90;;;;;;;;;;5130448;28;20028;-56
2024/03/21 09:36:59;;;;;;;4.10;1.73;;;;;;;;;;5134461;28;20028;-57
2024/03/21 09:39:24;;;;;;;6.80;1.80;;;;;;;;;;5133402;28;20020;-63
2024/03/21 09:41:52;;;;;;;8.37;1.93;;;;;;;;;;5138426;28;20019;-57
2024/03/21 09:44:18;;;;;;;4.93;1.83;;;;;;;;;;5126342;28;20042;-59
2024/03/21 09:46:45;;;;;;;4.43;1.23;;;;;;;;;;5138241;28;20263;-57
2024/03/21 09:49:11;;;;;;;12.73;2.53;;;;;;;;;;5126777;28;20020;-55
2024/03/21 09:51:38;;;;;;;4.77;1.33;;;;;;;;;;5134188;28;20289;-58
2024/03/21 09:54:04;;;;;;;7.40;2.03;;;;;;;;;;5138405;28;20252;-56
2024/03/21 09:56:29;;;;;;;9.60;2.10;;;;;;;;;;5138242;28;20287;-55
2024/03/21 09:58:55;;;;;;;9.32;1.83;;;;;;;;;;5131052;28;20036;-59
2024/03/21 10:01:24;;;;;;;6.85;1.60;;;;;;;;;;5132367;28;20024;-59
2024/03/21 10:03:55;;;;;;;5.70;2.20;;;;;;;;;;5127283;28;20047;-56
2024/03/21 10:06:21;;;;;;;6.50;1.27;;;;;;;;;;5129283;28;20036;-58
2024/03/21 10:08:46;;;;;;;7.78;1.98;;;;;;;;;;5120310;28;20032;-55
2024/03/21 10:11:11;;;;;;;10.13;1.98;;;;;;;;;;5136301;28;20035;-57
2024/03/21 10:13:41;;;;;;;6.85;2.03;;;;;;;;;;5129370;28;20031;-57
2024/03/21 10:16:11;;;;;;;5.33;1.90;;;;;;;;;;5136666;28;20032;-58
2024/03/21 10:18:40;;;;;;;16.73;2.53;;;;;;;;;;5129948;28;20028;-59
2024/03/21 10:21:11;;;;;;;8.33;1.80;;;;;;;;;;5135622;28;20027;-56
2024/03/21 10:23:37;;;;;;;8.00;1.87;;;;;;;;;;5135458;28;20043;-57
2024/03/21 10:26:03;;;;;;;7.88;1.70;;;;;;;;;;5125202;28;20101;-55
2024/03/21 10:28:28;;;;;;;9.18;1.90;;;;;;;;;;5136690;28;20042;-57
2024/03/21 10:30:54;;;;;;;5.70;2.10;;;;;;;;;;5135415;28;20061;-58
2024/03/21 10:33:20;;;;;;;8.80;2.08;;;;;;;;;;5137715;28;20057;-55
2024/03/21 10:35:45;;;;;;;6.88;2.28;;;;;;;;;;5135665;28;20095;-57
2024/03/21 10:38:13;;;;;;;5.32;2.25;;;;;;;;;;5125758;28;20057;-57
2024/03/21 10:40:44;;;;;;;5.90;2.63;;;;;;;;;;5129672;28;20039;-54
2024/03/21 10:43:13;;;;;;;8.10;1.90;;;;;;;;;;5137838;28;20023;-58
2024/03/21 10:45:39;;;;;;;7.93;2.20;;;;;;;;;;5137281;28;20034;-57
2024/03/21 10:48:06;;;;;;;7.50;2.00;;;;;;;;;;5113536;28;20028;-57
2024/03/21 10:50:32;;;;;;;3.97;1.60;;;;;;;;;;5130095;28;20054;-58
2024/03/21 10:52:59;;;;;;;4.75;1.90;;;;;;;;;;5119675;28;20055;-56
2024/03/21 10:55:24;;;;;;;4.47;1.50;;;;;;;;;;5137102;28;20041;-55
2024/03/21 10:57:51;;;;;;;4.38;1.42;;;;;;;;;;5137531;28;20028;-56
2024/03/21 11:00:20;;;;;;;8.48;1.92;;;;;;;;;;5137078;28;20052;-56
2024/03/21 11:02:51;;;;;;;11.20;2.40;;;;;;;;;;5137535;28;20056;-58
2024/03/21 11:05:18;;;;;;;6.90;2.20;;;;;;;;;;5135148;28;20031;-56
2024/03/21 11:07:44;;;;;;;7.83;1.97;;;;;;;;;;5119473;28;20052;-55
2024/03/21 11:10:20;;;;;;;11.55;3.17;;;;;;;;;;5136580;28;20080;-57
2024/03/21 11:12:46;;;;;;;7.93;2.70;;;;;;;;;;5130423;28;20039;-57
2024/03/21 11:15:12;;;;;;;4.40;2.35;;;;;;;;;;5137072;28;20036;-56
2024/03/21 11:17:43;;;;;;;7.20;3.17;;;;;;;;;;5136960;28;20064;-58
2024/03/21 11:20:09;;;;;;;6.23;2.50;;;;;;;;;;5117163;28;20024;-56
2024/03/21 11:22:35;;;;;;;5.43;2.20;;;;;;;;;;5136213;28;20030;-56
2024/03/21 11:25:01;;;;;;;7.18;2.47;;;;;;;;;;5136777;28;20027;-54
2024/03/21 11:27:28;;;;;;;5.35;2.13;;;;;;;;;;5136089;28;20051;-57
2024/03/21 11:29:53;;;;;;;7.40;2.47;;;;;;;;;;5136628;28;20024;-57
2024/03/21 11:32:26;;;;;;;7.38;3.13;;;;;;;;;;5122778;28;20040;-58
2024/03/21 11:34:52;;;;;;;7.77;2.80;;;;;;;;;;5134538;28;20047;-57
2024/03/21 11:37:18;;;;;;;8.85;3.65;;;;;;;;;;5131500;28;20028;-56
2024/03/21 11:39:43;;;;;;;12.73;5.50;;;;;;;;;;5136618;28;20028;-56
2024/03/21 11:42:13;;;;;;;8.27;2.72;;;;;;;;;;5135835;28;20024;-59
2024/03/21 11:44:43;;;;;;;11.83;4.37;;;;;;;;;;5136478;28;20038;-58
2024/03/21 11:47:15;;;;;;;17.00;4.37;;;;;;;;;;5132530;28;20046;-55
2024/03/21 11:49:41;;;;;;;12.30;4.50;;;;;;;;;;5126063;28;20046;-59
2024/03/21 11:52:07;;;;;;;;;;;;;;;;;;5132922;28;20027;-57
2024/03/21 11:54:33;;;;;;;5.60;2.97;;;;;;;;;;5135552;28;19907;-57
2024/03/21 11:56:59;;;;;;;6.03;3.72;;;;;;;;;;5135721;28;20040;-58
2024/03/21 11:59:30;;;;;;;12.18;4.60;;;;;;;;;;5122066;28;20035;-57
2024/03/21 12:01:59;;;;;;;7.43;3.80;;;;;;;;;;5124521;28;20114;-58
2024/03/21 12:04:25;;;;;;;11.53;4.07;;;;;;;;;;5124828;28;20031;-60
2024/03/21 12:06:51;;;;;;;14.60;4.25;;;;;;;;;;5121428;28;20046;-58
2024/03/21 12:09:17;;;;;;;8.07;4.05;;;;;;;;;;5117898;28;20031;-59
2024/03/21 12:11:44;;;;;;;7.80;4.13;;;;;;;;;;5135123;28;20038;-56
2024/03/21 12:14:09;;;;;;;;;;;;;;;;;;5123665;28;20024;-59
2024/03/21 12:16:34;;;;;;;8.53;4.57;;;;;;;;;;5135410;28;19933;-57
2024/03/21 12:19:00;;;;;;;14.23;5.47;;;;;;;;;;5135744;28;20082;-54
2024/03/21 12:21:25;;;;;;;10.38;6.18;;;;;;;;;;5122883;28;20032;-56
2024/03/21 12:23:51;;;;;;;10.98;5.78;;;;;;;;;;5135818;28;20024;-58
2024/03/21 12:26:16;;;;;;;10.20;5.70;;;;;;;;;;5130469;28;20036;-57
2024/03/21 12:28:42;;;;;;;8.87;5.67;;;;;;;;;;5135915;28;20047;-57
2024/03/21 12:31:12;;;;;;;12.90;7.03;;;;;;;;;;5131035;28;20034;-58
2024/03/21 12:33:38;;;;;;;13.90;8.30;;;;;;;;;;5117434;28;20024;-56
2024/03/21 12:36:04;;;;;;;;;;;;;;;;;;5128650;28;20032;-56
2024/03/21 12:38:30;;;;;;;10.23;7.47;;;;;;;;;;5110469;28;19907;-58
2024/03/21 12:40:56;;;;;;;;;;;;;;;;;;5135288;28;20016;-58
2024/03/21 12:43:21;;;;;;;16.33;8.43;;;;;;;;;;5135412;28;19948;-57
2024/03/21 12:45:49;;;;;;;13.63;8.90;;;;;;;;;;5129016;28;20028;-56
2024/03/21 12:48:15;;;;;;;18.40;10.03;;;;;;;;;;5126457;28;20036;-58
2024/03/21 12:50:41;;;;;;;;;;;;;;;;;;5135497;28;20027;-56
2024/03/21 12:53:06;;;;;;;14.30;11.10;;;;;;;;;;5128679;28;19915;-58
2024/03/21 12:55:32;;;;;;;14.90;10.35;;;;;;;;;;5130316;28;20024;-58
2024/03/21 12:57:57;;;;;;;15.57;10.77;;;;;;;;;;5126656;28;20095;-58
2024/03/21 13:00:23;;;;;;;13.45;9.90;;;;;;;;;;5135020;28;20028;-58
2024/03/21 13:02:48;;;;;;;20.90;9.93;;;;;;;;;;5130103;28;20031;-55
2024/03/21 13:05:14;;;;;;;15.75;9.35;;;;;;;;;;5120820;28;20054;-57
2024/03/21 13:07:39;;;;;;;15.02;9.85;;;;;;;;;;5126545;28;20031;-55
2024/03/21 13:10:05;;;;;;;12.45;7.65;;;;;;;;;;5134385;28;20087;-57
2024/03/21 13:12:32;;;;;;;10.38;5.50;;;;;;;;;;5116464;28;20036;-55
2024/03/21 13:14:58;;;;;;;14.73;5.67;;;;;;;;;;5138324;28;20047;-58
2024/03/21 13:17:24;;;;;;;9.07;5.32;;;;;;;;;;5139288;28;20079;-58
2024/03/21 13:19:49;;;;;;;13.60;5.37;;;;;;;;;;5138842;28;20032;-57
2024/03/21 13:22:15;;;;;;;11.55;3.92;;;;;;;;;;5127758;28;20024;-57
2024/03/21 13:24:40;;;;;;;6.82;3.67;;;;;;;;;;5136836;28;20035;-55
2024/03/21 13:27:07;;;;;;;9.57;3.30;;;;;;;;;;5134965;28;20024;-58
2024/03/21 13:29:33;;;;;;;6.07;2.67;;;;;;;;;;5131551;28;20034;-55
2024/03/21 13:31:58;;;;;;;8.63;3.47;;;;;;;;;;5130144;28;20032;-58
2024/03/21 13:34:24;;;;;;;5.28;2.88;;;;;;;;;;5136482;28;20028;-58
2024/03/21 13:36:49;;;;;;;7.20;3.63;;;;;;;;;;5138054;28;20095;-56
2024/03/21 13:39:15;;;;;;;12.80;4.78;;;;;;;;;;5135534;28;20031;-57
2024/03/21 13:41:41;;;;;;;7.18;3.97;;;;;;;;;;5133402;28;20087;-56
2024/03/21 13:44:07;;;;;;;7.63;4.25;;;;;;;;;;5136775;28;20023;-57
2024/03/21 13:46:33;;;;;;;11.82;5.40;;;;;;;;;;5138856;28;20038;-57
2024/03/21 13:49:05;;;;;;;15.30;6.20;;;;;;;;;;5138430;28;20076;-59
2024/03/21 13:51:31;;;;;;;13.90;5.97;;;;;;;;;;5138225;28;20260;-54
2024/03/21 13:53:56;;;;;;;11.68;4.82;;;;;;;;;;5138497;28;20099;-57
2024/03/21 13:56:22;;;;;;;13.70;5.03;;;;;;;;;;5130985;28;20039;-57
2024/03/21 13:58:49;;;;;;;8.33;3.07;;;;;;;;;;5134383;28;20048;-56
2024/03/21 14:01:14;;;;;;;8.33;4.27;;;;;;;;;;5129964;28;20028;-57
2024/03/21 14:03:40;;;;;;;5.85;3.60;;;;;;;;;;5137502;28;20023;-57
2024/03/21 14:06:08;;;;;;;10.35;3.95;;;;;;;;;;5138279;28;20035;-55
2024/03/21 14:08:34;;;;;;;11.10;5.03;;;;;;;;;;5133067;28;20020;-57
2024/03/21 14:10:59;;;;;;;14.25;4.18;;;;;;;;;;5138475;28;20036;-57
2024/03/21 14:13:27;;;;;;;19.27;7.50;;;;;;;;;;5137248;28;20080;-54
2024/03/21 14:15:53;;;;;;;9.57;4.77;;;;;;;;;;5135760;28;20059;-58
2024/03/21 14:18:20;;;;;;;10.10;4.00;;;;;;;;;;5137480;28;20042;-55
2024/03/21 14:20:56;;;;;;;7.17;4.30;;;;;;;;;;5125198;28;20054;-55
2024/03/21 14:23:24;;;;;;;15.17;6.80;;;;;;;;;;5135279;28;20031;-58
2024/03/21 14:25:51;;;;;;;9.87;5.37;;;;;;;;;;5136635;28;20048;-57
2024/03/21 14:28:16;;;;;;;8.83;5.57;;;;;;;;;;5138378;28;20036;-57